| time (UTC) | temp F | wind direction | speed knots | gust knots | rain 1hr in | rain 24hr in | rain mn in | humidity % | barometer mb |
| 20260506190037 | 52 | 0 | 0.0 | 0.0 | 0.00 | 0.88 | 0.88 | 96 | 1006.0 |
| 20260506184529 | 52 | 0 | 0.0 | 0.0 | 0.00 | 0.88 | 0.88 | 96 | 1006.0 |
| 20260506183030 | 52 | 0 | 0.0 | 3.5 | 0.00 | 0.88 | 0.88 | 96 | 1005.8 |
| 20260506181530 | 52 | 0 | 0.0 | 1.7 | 0.00 | 0.88 | 0.88 | 96 | 1005.6 |
| 20260506180031 | 52 | 0 | 0.0 | 1.7 | 0.00 | 0.88 | 0.88 | 96 | 1005.6 |
| 20260506174530 | 52 | 0 | 0.0 | 1.7 | 0.00 | 0.88 | 0.88 | 96 | 1005.7 |
| 20260506173037 | 52 | 41 | 0.0 | 1.7 | 0.00 | 0.88 | 0.88 | 96 | 1005.5 |
| 20260506171602 | 52 | 0 | 0.0 | 0.9 | 0.00 | 0.88 | 0.88 | 96 | 1005.5 |
| 20260506170029 | 52 | 0 | 0.0 | 2.6 | 0.00 | 0.88 | 0.88 | 96 | 1005.5 |
| 20260506164528 | 52 | 0 | 0.0 | 1.7 | 0.00 | 0.88 | 0.88 | 96 | 1005.5 |
| 20260506163045 | 52 | 0 | 0.0 | 0.0 | 0.00 | 0.88 | 0.88 | 96 | 1005.4 |
| 20260506161530 | 52 | 0 | 0.0 | 1.7 | 0.02 | 0.88 | 0.88 | 96 | 1005.4 |
| 20260506160028 | 52 | 0 | 0.0 | 1.7 | 0.03 | 0.88 | 0.88 | 96 | 1005.3 |
| 20260506154535 | 52 | 0 | 0.0 | 1.7 | 0.02 | 0.87 | 0.87 | 96 | 1005.3 |
| 20260506153032 | 52 | 0 | 0.0 | 1.7 | 0.02 | 0.87 | 0.87 | 96 | 1005.4 |
| 20260506151537 | 52 | 0 | 0.0 | 2.6 | 0.00 | 0.85 | 0.85 | 96 | 1005.5 |
| 20260506150028 | 52 | 0 | 0.0 | 1.7 | 0.00 | 0.85 | 0.85 | 96 | 1005.5 |
| 20260506144529 | 52 | 0 | 0.0 | 1.7 | 0.01 | 0.85 | 0.85 | 96 | 1005.5 |
| 20260506143028 | 51 | 0 | 0.0 | 1.7 | 0.01 | 0.85 | 0.85 | 96 | 1005.5 |
| 20260506141530 | 52 | 0 | 0.0 | 1.7 | 0.01 | 0.85 | 0.85 | 96 | 1005.5 |
| 20260506140033 | 51 | 0 | 0.0 | 2.6 | 0.00 | 0.84 | 0.84 | 96 | 1005.6 |
| 20260506134528 | 51 | 0 | 0.0 | 1.7 | 0.00 | 0.83 | 0.83 | 96 | 1005.5 |
| 20260506133029 | 51 | 0 | 0.0 | 1.7 | 0.00 | 0.83 | 0.83 | 96 | 1005.6 |
| 20260506131535 | 51 | 39 | 0.0 | 1.7 | 0.00 | 0.83 | 0.83 | 96 | 1005.5 |
| 20260506130030 | 51 | 0 | 0.0 | 1.7 | 0.00 | 0.83 | 0.83 | 96 | 1005.6 |
| 20260506124528 | 51 | 0 | 0.0 | 2.6 | 0.00 | 0.83 | 0.83 | 96 | 1005.6 |
| 20260506123030 | 51 | 0 | 0.0 | 1.7 | 0.00 | 0.83 | 0.83 | 96 | 1005.5 |
| 20260506121529 | 51 | 0 | 0.0 | 2.6 | 0.00 | 0.83 | 0.83 | 96 | 1005.5 |
| 20260506120029 | 51 | 0 | 0.0 | 1.7 | 0.00 | 0.83 | 0.83 | 96 | 1005.4 |
| 20260506114527 | 51 | 0 | 0.0 | 1.7 | 0.00 | 0.83 | 0.83 | 96 | 1005.3 |
| 20260506113028 | 51 | 0 | 0.0 | 1.7 | 0.00 | 0.83 | 0.83 | 96 | 1005.3 |
| 20260506111531 | 51 | 0 | 0.0 | 1.7 | 0.00 | 0.83 | 0.83 | 96 | 1005.5 |
| 20260506110029 | 51 | 0 | 0.0 | 1.7 | 0.00 | 0.83 | 0.83 | 96 | 1005.3 |
| 20260506104528 | 51 | 42 | 0.0 | 2.6 | 0.00 | 0.83 | 0.83 | 97 | 1005.3 |
| 20260506103028 | 50 | 42 | 0.0 | 1.7 | 0.00 | 0.83 | 0.83 | 96 | 1005.3 |
| 20260506101528 | 50 | 0 | 0.0 | 2.6 | 0.00 | 0.83 | 0.83 | 97 | 1005.4 |
| 20260506100031 | 49 | 0 | 0.9 | 3.5 | 0.00 | 0.83 | 0.83 | 96 | 1005.3 |
| 20260506094526 | 49 | 38 | 0.0 | 2.6 | 0.00 | 0.83 | 0.83 | 96 | 1005.3 |
| 20260506093030 | 49 | 42 | 0.0 | 4.3 | 0.00 | 0.83 | 0.83 | 96 | 1005.3 |
| 20260506091530 | 49 | 38 | 0.0 | 3.5 | 0.00 | 0.83 | 0.83 | 96 | 1005.1 |
| 20260506090027 | 49 | 0 | 0.0 | 4.3 | 0.00 | 0.83 | 0.83 | 96 | 1005.1 |
| 20260506084536 | 49 | 0 | 0.0 | 2.6 | 0.01 | 0.83 | 0.83 | 96 | 1005.1 |
| 20260506083032 | 49 | 0 | 0.0 | 3.5 | 0.00 | 0.82 | 0.82 | 96 | 1005.0 |
| 20260506081528 | 49 | 0 | 0.0 | 4.3 | 0.01 | 0.82 | 0.82 | 96 | 1005.0 |
| 20260506073029 | 48 | 0 | 0.0 | 1.7 | 0.03 | 0.82 | 0.81 | 96 | 1004.9 |
| 20260506071530 | 48 | 36 | 0.0 | 1.7 | 0.03 | 0.81 | 0.81 | 96 | 1004.8 |
| 20260506061531 | 48 | 0 | 0.0 | 1.7 | 0.11 | 0.80 | 0.77 | 96 | 1004.4 |
| 20260506044528 | 49 | 0 | 0.0 | 1.7 | 0.08 | 0.67 | 0.59 | 96 | 1004.5 |
| 20260506043028 | 49 | 0 | 0.0 | 1.7 | 0.08 | 0.65 | 0.57 | 96 | 1004.5 |
| 20260506041544 | 50 | 0 | 0.0 | 0.0 | 0.08 | 0.62 | 0.55 | 96 | 1004.7 |
| 20260506040029 | 50 | 0 | 0.0 | 1.7 | 0.08 | 0.60 | 0.52 | 96 | 1004.7 |
| 20260506034543 | 50 | 0 | 0.0 | 1.7 | 0.09 | 0.59 | 0.51 | 96 | 1004.8 |
| 20260506033029 | 50 | 0 | 0.0 | 1.7 | 0.10 | 0.57 | 0.48 | 96 | 1004.8 |
| 20260506031529 | 50 | 0 | 0.0 | 1.7 | 0.11 | 0.55 | 0.46 | 96 | 1004.8 |
| 20260506030028 | 50 | 0 | 0.0 | 1.7 | 0.14 | 0.52 | 0.44 | 96 | 1004.9 |
| 20260506024529 | 50 | 0 | 0.0 | 1.7 | 0.17 | 0.50 | 0.41 | 96 | 1005.0 |
| 20260506023030 | 50 | 0 | 0.0 | 1.7 | 0.19 | 0.47 | 0.38 | 95 | 1005.2 |
| 20260506021529 | 50 | 0 | 0.0 | 1.7 | 0.19 | 0.43 | 0.34 | 95 | 1005.4 |
| 20260506020028 | 50 | 0 | 0.0 | 0.0 | 0.18 | 0.38 | 0.29 | 95 | 1005.5 |
| 20260506014528 | 50 | 0 | 0.0 | 1.7 | 0.13 | 0.32 | 0.23 | 95 | 1005.6 |
| 20260506013041 | 51 | 36 | 0.0 | 2.6 | 0.11 | 0.26 | 0.18 | 95 | 1005.5 |
| 20260506011528 | 51 | 0 | 0.0 | 2.6 | 0.08 | 0.22 | 0.14 | 95 | 1005.6 |
| 20260506010032 | 51 | 0 | 0.0 | 1.7 | 0.08 | 0.20 | 0.11 | 95 | 1005.7 |
| 20260506004527 | 51 | 0 | 0.0 | 1.7 | 0.07 | 0.18 | 0.09 | 95 | 1005.6 |
| 20260506003030 | 51 | 0 | 0.0 | 3.5 | 0.06 | 0.15 | 0.07 | 95 | 1005.8 |
| 20260506001529 | 51 | 0 | 0.0 | 2.6 | 0.05 | 0.14 | 0.05 | 95 | 1005.8 |
| 20260506000029 | 51 | 0 | 0.0 | 1.7 | 0.03 | 0.11 | 0.03 | 94 | 1005.9 |
| 20260505234529 | 52 | 0 | 0.0 | 1.7 | 0.01 | 0.11 | 0.01 | 95 | 1006.2 |
| 20260505233030 | 52 | 40 | 0.0 | 2.6 | 0.00 | 0.10 | 0.00 | 94 | 1006.4 |
| 20260505231531 | 52 | 0 | 0.0 | 4.3 | 0.00 | 0.09 | 0.00 | 94 | 1006.6 |
| 20260505230027 | 52 | 0 | 0.0 | 2.6 | 0.00 | 0.09 | 0.00 | 94 | 1006.6 |
| 20260505224530 | 52 | 0 | 0.0 | 2.6 | 0.00 | 0.09 | 0.00 | 94 | 1006.8 |
| 20260505223037 | 52 | 0 | 0.0 | 2.6 | 0.00 | 0.09 | 0.00 | 94 | 1006.8 |
| 20260505221528 | 52 | 0 | 0.0 | 3.5 | 0.00 | 0.09 | 0.00 | 93 | 1006.9 |
| 20260505220047 | 52 | 0 | 0.0 | 3.5 | 0.00 | 0.09 | 0.00 | 93 | 1007.0 |
| 20260505214535 | 52 | 0 | 0.0 | 1.7 | 0.00 | 0.12 | 0.09 | 93 | 1007.0 |
| 20260505213033 | 52 | 0 | 0.0 | 2.6 | 0.00 | 0.12 | 0.09 | 93 | 1007.2 |
| 20260505211531 | 52 | 0 | 0.0 | 3.5 | 0.00 | 0.12 | 0.09 | 93 | 1007.3 |
| 20260505210030 | 53 | 40 | 0.0 | 3.5 | 0.00 | 0.12 | 0.09 | 93 | 1007.3 |
| 20260505204530 | 53 | 0 | 0.0 | 2.6 | 0.00 | 0.16 | 0.09 | 93 | 1007.4 |
| 20260505203029 | 53 | 0 | 0.0 | 2.6 | 0.00 | 0.16 | 0.09 | 93 | 1007.3 |
| 20260505201528 | 53 | 0 | 0.0 | 2.6 | 0.00 | 0.16 | 0.09 | 93 | 1007.3 |
| 20260505200036 | 53 | 36 | 0.0 | 2.6 | 0.00 | 0.16 | 0.09 | 92 | 1007.1 |
| 20260505194530 | 53 | 0 | 0.0 | 2.6 | 0.00 | 0.25 | 0.09 | 92 | 1007.2 |
| 20260505193028 | 54 | 0 | 0.0 | 4.3 | 0.00 | 0.25 | 0.09 | 92 | 1007.2 |
| 20260505191529 | 54 | 0 | 0.0 | 1.7 | 0.00 | 0.25 | 0.09 | 92 | 1007.1 |